createdAt,value
2023-02-15T00:00:12.240Z,100487.88
2023-02-15T00:02:41.489Z,100482.66
2023-02-15T00:05:11.324Z,100480.88
2023-02-15T00:07:39.786Z,100481.81
2023-02-15T00:10:09.501Z,100480.63
2023-02-15T00:12:37.980Z,100476.22
2023-02-15T00:15:06.697Z,100479.75
2023-02-15T00:17:35.087Z,100481.50
2023-02-15T00:20:03.499Z,100469.19
2023-02-15T00:22:33.411Z,100475.25
2023-02-15T00:25:01.804Z,100464.91
2023-02-15T00:27:30.240Z,100462.97
2023-02-15T00:29:58.640Z,100478.16
2023-02-15T00:32:26.992Z,100468.50
2023-02-15T00:34:55.536Z,100466.59
2023-02-15T00:37:25.845Z,100474.69
2023-02-15T00:39:55.634Z,100467.63
2023-02-15T00:42:24.031Z,100459.97
2023-02-15T00:44:54.090Z,100471.09
2023-02-15T00:47:22.762Z,100468.44
2023-02-15T00:49:51.256Z,100468.56
2023-02-15T00:52:20.229Z,100467.44
2023-02-15T00:54:48.536Z,100469.09
2023-02-15T00:57:18.402Z,100463.97
2023-02-15T00:59:46.791Z,100466.63
2023-02-15T01:02:15.324Z,100470.63
2023-02-15T01:04:43.819Z,100468.53
2023-02-15T01:07:12.231Z,100465.47
2023-02-15T01:09:40.573Z,100456.13
2023-02-15T01:12:09.628Z,100453.22
2023-02-15T01:14:39.377Z,100455.06
2023-02-15T01:17:07.990Z,100458.53
2023-02-15T01:19:37.432Z,100458.53
2023-02-15T01:22:05.778Z,100450.06
2023-02-15T01:24:37.310Z,100442.88
2023-02-15T01:27:05.615Z,100449.44
2023-02-15T01:29:33.985Z,100440.16
2023-02-15T01:32:03.881Z,100445.22
2023-02-15T01:34:32.531Z,100442.53
2023-02-15T01:37:01.400Z,100442.38
2023-02-15T01:39:29.778Z,100435.31
2023-02-15T01:41:58.585Z,100434.44
2023-02-15T01:44:50.553Z,100433.81
2023-02-15T01:47:28.393Z,100431.84
2023-02-15T01:50:04.114Z,100421.34
2023-02-15T01:52:32.626Z,100418.38
2023-02-15T01:55:01.161Z,100420.47
2023-02-15T01:57:32.251Z,100424.38
2023-02-15T02:00:03.463Z,100419.38
2023-02-15T02:02:45.212Z,100421.59
2023-02-15T02:05:13.689Z,100408.50
2023-02-15T02:07:45.912Z,100415.31
2023-02-15T02:10:17.785Z,100426.25
2023-02-15T02:12:49.404Z,100414.19
2023-02-15T02:15:18.263Z,100399.44
2023-02-15T02:18:02.289Z,100408.53
2023-02-15T02:20:45.342Z,100401.97
2023-02-15T02:23:35.108Z,100396.16
2023-02-15T02:26:45.061Z,100389.06
2023-02-15T02:29:49.901Z,100379.59
2023-02-15T02:32:34.879Z,100387.09
2023-02-15T02:35:12.336Z,100386.88
2023-02-15T02:37:52.621Z,100378.50
2023-02-15T02:40:27.857Z,100382.31
2023-02-15T02:43:02.152Z,100387.84
2023-02-15T02:45:39.798Z,100385.38
2023-02-15T02:48:11.652Z,100373.75
2023-02-15T02:50:43.087Z,100378.19
2023-02-15T02:53:12.098Z,100376.81
2023-02-15T02:55:45.407Z,100369.81
2023-02-15T02:58:18.733Z,100370.28
2023-02-15T03:00:52.690Z,100370.50
2023-02-15T03:03:27.968Z,100366.78
2023-02-15T03:06:01.654Z,100367.50
2023-02-15T03:08:35.086Z,100364.25
2023-02-15T03:11:05.882Z,100351.31
2023-02-15T03:13:35.460Z,100357.78
2023-02-15T03:16:25.194Z,100354.84
2023-02-15T03:18:59.054Z,100353.94
2023-02-15T03:21:36.089Z,100357.84
2023-02-15T03:24:15.357Z,100351.88
2023-02-15T03:26:45.265Z,100356.63
2023-02-15T03:29:14.766Z,100352.22
2023-02-15T03:31:47.755Z,100354.91
2023-02-15T03:34:18.857Z,100352.13
2023-02-15T03:36:54.186Z,100355.28
2023-02-15T03:39:26.932Z,100358.59
2023-02-15T03:42:00.349Z,100354.50
2023-02-15T03:44:31.748Z,100341.72
2023-02-15T03:47:06.357Z,100339.72
2023-02-15T03:49:41.160Z,100333.94
2023-02-15T03:52:13.837Z,100330.78
2023-02-15T03:54:46.859Z,100328.13
2023-02-15T03:57:37.905Z,100330.34
2023-02-15T04:00:30.997Z,100329.00
2023-02-15T04:03:12.707Z,100307.81
2023-02-15T04:05:41.325Z,100326.16
2023-02-15T04:08:11.734Z,100325.09
2023-02-15T04:10:55.963Z,100316.38
2023-02-15T04:13:31.484Z,100316.72
2023-02-15T04:16:05.920Z,100323.44
2023-02-15T04:18:55.857Z,100321.44
2023-02-15T04:21:44.139Z,100334.25
2023-02-15T04:24:32.095Z,100335.44
2023-02-15T04:27:01.402Z,100329.00
2023-02-15T04:29:30.239Z,100324.50
2023-02-15T04:31:59.991Z,100320.06
2023-02-15T04:34:28.545Z,100314.03
2023-02-15T04:36:56.902Z,100314.50
2023-02-15T04:39:26.866Z,100328.84
2023-02-15T04:41:55.299Z,100332.91
2023-02-15T04:44:23.651Z,100327.19
2023-02-15T04:46:52.027Z,100329.22
2023-02-15T04:49:20.398Z,100329.56
2023-02-15T04:51:48.772Z,100320.94
2023-02-15T04:54:17.081Z,100316.22
2023-02-15T04:56:46.932Z,100316.22
2023-02-15T04:59:15.796Z,100318.97
2023-02-15T05:01:44.270Z,100316.59
2023-02-15T05:04:12.919Z,100300.97
2023-02-15T05:06:41.390Z,100307.34
2023-02-15T05:09:09.710Z,100316.41
2023-02-15T05:11:38.132Z,100301.53
2023-02-15T05:14:07.807Z,100306.97
2023-02-15T05:16:36.577Z,100307.19
2023-02-15T05:19:04.930Z,100305.72
2023-02-15T05:21:33.695Z,100305.97
2023-02-15T05:24:22.035Z,100303.47
2023-02-15T05:27:07.841Z,100292.69
2023-02-15T05:29:37.575Z,100299.44
2023-02-15T05:32:06.296Z,100291.22
2023-02-15T05:34:34.701Z,100291.22
2023-02-15T05:37:03.126Z,100291.53
2023-02-15T05:39:31.605Z,100299.44
2023-02-15T05:42:00.943Z,100300.38
2023-02-15T05:44:29.396Z,100302.03
2023-02-15T05:46:59.120Z,100300.16
2023-02-15T05:49:27.459Z,100304.41
2023-02-15T05:51:55.848Z,100300.97
2023-02-15T05:54:24.464Z,100299.25
2023-02-15T05:56:52.896Z,100294.00
2023-02-15T05:59:21.270Z,100300.78
2023-02-15T06:01:49.701Z,100294.09
2023-02-15T06:04:20.345Z,100293.09
2023-02-15T06:06:48.915Z,100299.22
2023-02-15T06:09:19.158Z,100301.69
2023-02-15T06:11:48.132Z,100292.56
2023-02-15T06:14:16.757Z,100311.47
2023-02-15T06:16:46.142Z,100309.81
2023-02-15T06:19:14.709Z,100306.56
2023-02-15T06:21:44.779Z,100296.28
2023-02-15T06:24:13.710Z,100301.97
2023-02-15T06:26:45.432Z,100302.34
2023-02-15T06:29:14.122Z,100312.59
2023-02-15T06:31:42.753Z,100299.25
2023-02-15T06:34:11.225Z,100295.00
2023-02-15T06:36:39.679Z,100297.59
2023-02-15T06:39:09.590Z,100294.00
2023-02-15T06:41:38.302Z,100294.06
2023-02-15T06:44:06.794Z,100300.56
2023-02-15T06:46:35.415Z,100293.84
2023-02-15T06:49:03.855Z,100300.97
2023-02-15T06:51:32.250Z,100288.31
2023-02-15T06:54:00.602Z,100297.34
2023-02-15T06:56:30.287Z,100302.38
2023-02-15T06:58:58.736Z,100299.97
2023-02-15T07:01:27.231Z,100297.47
2023-02-15T07:03:55.847Z,100300.28
2023-02-15T07:06:24.201Z,100288.41
2023-02-15T07:08:53.651Z,100286.38
2023-02-15T07:11:39.483Z,100288.22
2023-02-15T07:14:09.195Z,100289.34
2023-02-15T07:16:37.587Z,100287.94
2023-02-15T07:19:06.357Z,100293.38
2023-02-15T07:21:34.814Z,100285.72
2023-02-15T07:24:03.887Z,100279.63
2023-02-15T07:26:34.042Z,100293.69
2023-02-15T07:29:03.389Z,100288.56
2023-02-15T07:31:33.313Z,100277.72
2023-02-15T07:34:01.676Z,100266.44
2023-02-15T07:36:29.985Z,100270.00
2023-02-15T07:38:58.461Z,100262.19
2023-02-15T07:41:26.848Z,100258.13
2023-02-15T07:43:55.464Z,100253.00
2023-02-15T07:46:23.869Z,100257.47
2023-02-15T07:48:53.741Z,100243.72
2023-02-15T07:51:22.187Z,100245.94
2023-02-15T07:53:52.393Z,100240.06
2023-02-15T07:56:20.729Z,100226.22
2023-02-15T07:58:56.528Z,100222.69
2023-02-15T08:01:27.287Z,100222.69
2023-02-15T08:03:59.646Z,100221.69
2023-02-15T08:06:29.905Z,100212.88
2023-02-15T08:08:58.826Z,100211.53
2023-02-15T08:11:33.652Z,100217.31
2023-02-15T08:14:04.824Z,100217.81
2023-02-15T08:16:36.318Z,100203.97
2023-02-15T08:19:08.692Z,100207.16
2023-02-15T08:21:38.810Z,100204.34
2023-02-15T08:24:08.823Z,100209.88
2023-02-15T08:26:41.616Z,100198.31
2023-02-15T08:29:11.548Z,100203.50
2023-02-15T08:31:42.096Z,100200.03
2023-02-15T08:34:13.249Z,100197.81
2023-02-15T08:36:42.128Z,100197.78
2023-02-15T08:39:10.767Z,100184.19
2023-02-15T08:41:41.648Z,100196.97
2023-02-15T08:44:11.583Z,100189.25
2023-02-15T08:46:42.381Z,100194.56
2023-02-15T08:49:14.668Z,100188.56
2023-02-15T08:51:43.594Z,100191.34
2023-02-15T08:54:15.401Z,100184.41
2023-02-15T08:56:45.315Z,100182.81
2023-02-15T08:59:17.195Z,100191.91
2023-02-15T09:01:46.343Z,100175.53
2023-02-15T09:04:17.638Z,100179.69
2023-02-15T09:06:49.004Z,100167.94
2023-02-15T09:09:18.394Z,100174.78
2023-02-15T09:11:48.784Z,100167.19
2023-02-15T09:14:18.850Z,100162.34
2023-02-15T09:16:49.774Z,100163.66
2023-02-15T09:19:21.865Z,100155.94
2023-02-15T09:21:50.493Z,100151.09
2023-02-15T09:24:19.726Z,100161.56
2023-02-15T09:26:49.479Z,100150.97
2023-02-15T09:29:19.943Z,100147.91
2023-02-15T09:31:50.686Z,100148.31
2023-02-15T09:34:22.119Z,100145.16
2023-02-15T09:36:51.856Z,100148.00
2023-02-15T09:39:23.388Z,100146.47
2023-02-15T09:42:15.018Z,100155.25
2023-02-15T09:45:13.896Z,100157.38
2023-02-15T09:48:03.602Z,100151.56
2023-02-15T09:50:44.422Z,100143.28
2023-02-15T09:53:28.653Z,100148.88
2023-02-15T09:56:04.480Z,100151.34
2023-02-15T09:58:46.112Z,100148.34
2023-02-15T10:01:26.353Z,100150.53
2023-02-15T10:04:13.419Z,100148.84
2023-02-15T10:06:49.166Z,100150.34
2023-02-15T10:09:51.712Z,100154.25
2023-02-15T10:12:50.658Z,100151.69
2023-02-15T10:15:39.800Z,100137.94
2023-02-15T10:18:22.087Z,100151.47
2023-02-15T10:20:58.722Z,100158.38
2023-02-15T10:23:53.895Z,100155.81
2023-02-15T10:26:24.672Z,100161.38
2023-02-15T10:28:55.895Z,100159.13
2023-02-15T10:31:29.985Z,100163.53
2023-02-15T10:34:16.399Z,100156.19
2023-02-15T10:37:06.593Z,100151.94
2023-02-15T10:39:50.241Z,100146.38
2023-02-15T10:42:27.440Z,100135.69
2023-02-15T10:45:15.070Z,100144.44
2023-02-15T10:47:57.112Z,100147.94
2023-02-15T10:50:35.637Z,100145.72
2023-02-15T10:53:24.599Z,100146.50
2023-02-15T10:56:03.124Z,100150.06
2023-02-15T10:58:45.754Z,100130.94
2023-02-15T11:01:22.228Z,100138.75
2023-02-15T11:04:06.634Z,100144.44
2023-02-15T11:06:38.829Z,100145.19
2023-02-15T11:09:13.706Z,100142.03
2023-02-15T11:11:44.836Z,100147.03
2023-02-15T11:14:21.200Z,100141.13
2023-02-15T11:16:54.026Z,100144.50
2023-02-15T11:19:28.483Z,100139.44
2023-02-15T11:21:57.860Z,100135.13
2023-02-15T11:24:30.556Z,100127.00
2023-02-15T11:27:05.142Z,100118.16
2023-02-15T11:29:35.450Z,100113.88
2023-02-15T11:32:14.514Z,100113.69
2023-02-15T11:34:50.230Z,100109.66
2023-02-15T11:37:21.934Z,100105.94
2023-02-15T11:39:55.611Z,100101.13
2023-02-15T11:42:27.524Z,100100.41
2023-02-15T11:45:03.962Z,100098.41
2023-02-15T11:47:32.421Z,100100.41
2023-02-15T11:50:01.633Z,100102.03
2023-02-15T11:52:30.012Z,100107.31
2023-02-15T11:54:58.438Z,100096.16
2023-02-15T11:57:36.400Z,100091.19
2023-02-15T12:00:12.451Z,100089.03
2023-02-15T12:02:46.522Z,100097.72
2023-02-15T12:05:20.000Z,100082.41
2023-02-15T12:07:53.939Z,100087.63
2023-02-15T12:10:26.172Z,100082.38
2023-02-15T12:13:13.280Z,100081.28
2023-02-15T12:15:44.785Z,100073.56
2023-02-15T12:18:22.451Z,100079.19
2023-02-15T12:20:51.189Z,100071.03
2023-02-15T12:23:21.359Z,100071.94
2023-02-15T12:25:55.079Z,100062.78
2023-02-15T12:28:28.918Z,100064.66
2023-02-15T12:30:59.082Z,100057.41
2023-02-15T12:33:32.213Z,100064.28
2023-02-15T12:36:03.870Z,100061.25
2023-02-15T12:38:32.600Z,100051.06
2023-02-15T12:41:03.718Z,100057.19
2023-02-15T12:43:36.228Z,100062.13
2023-02-15T12:46:27.683Z,100057.66
2023-02-15T12:49:21.172Z,100048.69
2023-02-15T12:51:52.130Z,100049.03
2023-02-15T12:54:40.994Z,100044.72
2023-02-15T12:57:28.983Z,100053.81
2023-02-15T13:00:01.396Z,100052.56
2023-02-15T13:02:37.283Z,100053.97
2023-02-15T13:05:19.435Z,100042.06
2023-02-15T13:07:51.772Z,100049.41
2023-02-15T13:10:25.497Z,100044.44
2023-02-15T13:12:55.529Z,100040.06
2023-02-15T13:15:36.625Z,100040.56
2023-02-15T13:18:06.940Z,100032.44
2023-02-15T13:20:41.469Z,100036.13
2023-02-15T13:23:22.680Z,100039.63
2023-02-15T13:25:51.602Z,100038.88
2023-02-15T13:28:25.988Z,100039.25
2023-02-15T13:30:56.268Z,100028.69
2023-02-15T13:33:31.721Z,100034.31
2023-02-15T13:36:08.604Z,100029.38
2023-02-15T13:38:48.962Z,100024.78
2023-02-15T13:41:22.108Z,100012.59
2023-02-15T13:44:01.233Z,100010.25
2023-02-15T13:46:51.159Z,100029.88
2023-02-15T13:49:32.700Z,100012.50
2023-02-15T13:52:16.446Z,100016.03
2023-02-15T13:54:53.337Z,100025.31
2023-02-15T13:57:41.023Z,100017.22
2023-02-15T14:00:20.087Z,100016.56
2023-02-15T14:03:10.588Z,100021.03
2023-02-15T14:05:57.666Z,100020.84
2023-02-15T14:08:42.542Z,100023.09
2023-02-15T14:11:19.250Z,100021.81
2023-02-15T14:14:20.292Z,100019.97
2023-02-15T14:17:06.737Z,100018.97
2023-02-15T14:19:46.581Z,100026.75
2023-02-15T14:22:25.052Z,100024.47
2023-02-15T14:25:05.325Z,100034.28
2023-02-15T14:27:48.315Z,100040.63
2023-02-15T14:30:22.230Z,100035.28
2023-02-15T14:32:54.952Z,100029.22
2023-02-15T14:35:28.801Z,100025.53
2023-02-15T14:38:03.527Z,100021.28
2023-02-15T14:40:57.290Z,100023.25
2023-02-15T14:43:33.865Z,100013.00
2023-02-15T14:46:09.568Z,100005.91
2023-02-15T14:48:44.459Z,100009.97
2023-02-15T14:51:57.754Z,100014.56
2023-02-15T14:54:58.798Z,100015.00
2023-02-15T14:57:33.384Z,100014.06
2023-02-15T15:00:20.035Z,100015.22
2023-02-15T15:02:51.717Z,100008.06
2023-02-15T15:05:23.166Z,100003.25
2023-02-15T15:07:55.429Z,99992.25
2023-02-15T15:10:41.465Z,100006.53
2023-02-15T15:13:42.341Z,100007.00
2023-02-15T15:16:30.285Z,100001.47
2023-02-15T15:18:59.394Z,100006.31
2023-02-15T15:21:56.218Z,100003.97
2023-02-15T15:24:53.114Z,100016.69
2023-02-15T15:28:10.249Z,99999.47
2023-02-15T15:30:52.402Z,100007.94
2023-02-15T15:33:52.831Z,100011.13
2023-02-15T15:36:55.392Z,100001.69
2023-02-15T15:40:02.347Z,100009.84
2023-02-15T15:42:34.550Z,100010.00
2023-02-15T15:46:00.097Z,100008.84
2023-02-15T15:48:33.408Z,100002.94
2023-02-15T15:51:05.534Z,100005.97
2023-02-15T15:53:40.934Z,100005.50
2023-02-15T15:56:13.893Z,100004.03
2023-02-15T15:58:48.617Z,99998.31
2023-02-15T16:01:17.260Z,100011.09
2023-02-15T16:03:53.366Z,100010.41
2023-02-15T16:06:33.205Z,100001.22
2023-02-15T16:09:18.383Z,100014.97
2023-02-15T16:11:51.076Z,100017.97
2023-02-15T16:14:27.795Z,100019.28
2023-02-15T16:16:59.381Z,100016.06
2023-02-15T16:19:31.383Z,100010.53
2023-02-15T16:22:02.098Z,100025.56
2023-02-15T16:24:44.989Z,100025.53
2023-02-15T16:27:35.347Z,100031.94
2023-02-15T16:30:24.372Z,100038.50
2023-02-15T16:32:55.484Z,100038.88
2023-02-15T16:35:25.425Z,100030.44
2023-02-15T16:37:53.819Z,100033.19
2023-02-15T16:40:34.896Z,100030.66
2023-02-15T16:43:08.547Z,100033.72
2023-02-15T16:45:39.671Z,100032.91
2023-02-15T16:48:13.904Z,100041.03
2023-02-15T16:50:48.297Z,100026.94
2023-02-15T16:53:21.167Z,100032.56
2023-02-15T16:55:52.960Z,100034.63
2023-02-15T16:58:29.345Z,100040.91
2023-02-15T17:01:00.794Z,100033.91
2023-02-15T17:03:29.567Z,100039.28
2023-02-15T17:05:59.830Z,100036.34
2023-02-15T17:08:33.322Z,100046.25
2023-02-15T17:11:12.631Z,100044.72
2023-02-15T17:14:15.150Z,100040.59
2023-02-15T17:16:49.801Z,100054.53
2023-02-15T17:19:22.850Z,100040.88
2023-02-15T17:21:54.203Z,100059.44
2023-02-15T17:24:33.484Z,100064.69
2023-02-15T17:27:05.905Z,100059.53
2023-02-15T17:29:39.286Z,100069.38
2023-02-15T17:32:17.790Z,100066.88
2023-02-15T17:34:50.199Z,100059.22
2023-02-15T17:37:28.075Z,100066.34
2023-02-15T17:39:57.373Z,100064.66
2023-02-15T17:42:25.954Z,100067.19
2023-02-15T17:44:55.747Z,100067.13
2023-02-15T17:47:27.575Z,100066.25
2023-02-15T17:49:55.981Z,100074.25
2023-02-15T17:52:26.441Z,100075.31
2023-02-15T17:55:12.855Z,100082.34
2023-02-15T17:57:41.282Z,100081.59
2023-02-15T18:00:33.683Z,100085.19
2023-02-15T18:03:19.667Z,100076.03
2023-02-15T18:06:05.664Z,100077.88
2023-02-15T18:08:51.679Z,100070.75
2023-02-15T18:11:35.816Z,100080.38
2023-02-15T18:14:04.725Z,100076.91
2023-02-15T18:16:37.413Z,100076.88
2023-02-15T18:19:06.776Z,100078.50
2023-02-15T18:21:35.103Z,100082.78
2023-02-15T18:24:03.567Z,100083.66
2023-02-15T18:26:32.002Z,100084.31
2023-02-15T18:29:00.479Z,100092.34
2023-02-15T18:31:29.188Z,100095.28
2023-02-15T18:34:03.052Z,100087.63
2023-02-15T18:36:33.592Z,100100.91
2023-02-15T18:39:07.768Z,100108.81
2023-02-15T18:41:37.302Z,100100.09
2023-02-15T18:44:11.437Z,100099.25
2023-02-15T18:46:39.822Z,100094.84
2023-02-15T18:49:09.627Z,100092.69
2023-02-15T18:51:40.109Z,100102.53
2023-02-15T18:54:18.116Z,100101.75
2023-02-15T18:56:54.632Z,100097.59
2023-02-15T18:59:24.430Z,100089.75
2023-02-15T19:01:53.950Z,100100.47
2023-02-15T19:04:25.796Z,100105.00
2023-02-15T19:06:55.558Z,100094.66
2023-02-15T19:09:26.101Z,100095.44
2023-02-15T19:11:56.133Z,100098.94
2023-02-15T19:14:27.557Z,100099.88
2023-02-15T19:16:56.377Z,100104.47
2023-02-15T19:19:27.240Z,100097.56
2023-02-15T19:21:56.183Z,100078.34
2023-02-15T19:24:31.672Z,100087.00
2023-02-15T19:27:00.174Z,100094.19
2023-02-15T19:29:31.582Z,100087.28
2023-02-15T19:32:00.025Z,100091.75
2023-02-15T19:34:29.845Z,100083.16
2023-02-15T19:36:58.511Z,100073.50
2023-02-15T19:39:29.979Z,100094.53
2023-02-15T19:41:58.490Z,100078.81
2023-02-15T19:44:26.875Z,100083.19
2023-02-15T19:46:55.586Z,100081.38
2023-02-15T19:49:23.955Z,100083.97
2023-02-15T19:51:54.177Z,100083.13
2023-02-15T19:54:30.696Z,100075.16
2023-02-15T19:57:00.151Z,100071.72
2023-02-15T19:59:30.027Z,100073.53
2023-02-15T20:01:58.476Z,100074.44
2023-02-15T20:04:28.008Z,100077.88
2023-02-15T20:07:00.130Z,100070.06
2023-02-15T20:09:32.195Z,100072.72
2023-02-15T20:12:00.795Z,100070.06
2023-02-15T20:14:29.104Z,100071.81
2023-02-15T20:16:57.458Z,100078.00
2023-02-15T20:19:25.800Z,100073.59
2023-02-15T20:22:00.398Z,100077.16
2023-02-15T20:24:31.711Z,100082.41
2023-02-15T20:27:00.489Z,100085.94
2023-02-15T20:29:28.827Z,100078.94
2023-02-15T20:32:01.149Z,100083.31
2023-02-15T20:34:29.572Z,100090.31
2023-02-15T20:36:57.892Z,100099.06
2023-02-15T20:39:26.303Z,100098.19
2023-02-15T20:41:56.098Z,100112.25
2023-02-15T20:44:26.558Z,100105.19
2023-02-15T20:46:56.707Z,100103.50
2023-02-15T20:49:26.754Z,100093.88
2023-02-15T20:52:36.147Z,100094.84
2023-02-15T20:55:57.287Z,100094.00
2023-02-15T20:59:25.810Z,100060.81
2023-02-15T21:01:58.773Z,100104.56
2023-02-15T21:04:32.543Z,100101.06
2023-02-15T21:07:02.191Z,100099.31
2023-02-15T21:09:32.390Z,100110.69
2023-02-15T21:12:02.514Z,100101.97
2023-02-15T21:14:32.295Z,100100.16
2023-02-15T21:17:00.849Z,100104.56
2023-02-15T21:19:29.684Z,100103.69
2023-02-15T21:21:59.595Z,100101.94
2023-02-15T21:24:30.089Z,100100.19
2023-02-15T21:27:03.139Z,100089.72
2023-02-15T21:29:32.963Z,100097.59
2023-02-15T21:32:02.590Z,100094.94
2023-02-15T21:34:31.276Z,100098.47
2023-02-15T21:37:00.214Z,100091.47
2023-02-15T21:39:33.544Z,100108.09
2023-02-15T21:42:30.783Z,100110.72
2023-02-15T21:45:32.691Z,100095.88
2023-02-15T21:48:01.412Z,100114.22
2023-02-15T21:50:47.443Z,100109.00
2023-02-15T21:53:21.601Z,100106.41
2023-02-15T21:55:50.073Z,100110.78
2023-02-15T21:58:21.346Z,100103.78
2023-02-15T22:00:54.601Z,100107.28
2023-02-15T22:03:23.764Z,100102.91
2023-02-15T22:05:52.322Z,100103.75
2023-02-15T22:08:20.857Z,100103.75
2023-02-15T22:10:49.675Z,100102.88
2023-02-15T22:13:24.007Z,100081.94
2023-02-15T22:15:53.759Z,100109.88
2023-02-15T22:18:26.195Z,100103.78
2023-02-15T22:20:55.991Z,100102.88
2023-02-15T22:23:24.912Z,100110.75
2023-02-15T22:25:56.139Z,100115.16
2023-02-15T22:28:29.886Z,100117.78
2023-02-15T22:30:59.736Z,100112.56
2023-02-15T22:33:30.248Z,100116.00
2023-02-15T22:35:59.394Z,100109.88
2023-02-15T22:38:28.426Z,100119.50
2023-02-15T22:41:03.120Z,100114.25
2023-02-15T22:43:38.517Z,100117.75
2023-02-15T22:46:14.223Z,100116.88
2023-02-15T22:48:43.714Z,100116.00
2023-02-15T22:51:13.936Z,100103.78
2023-02-15T22:53:42.473Z,100112.50
2023-02-15T22:56:18.592Z,100115.13
2023-02-15T22:58:48.373Z,100121.25
2023-02-15T23:01:25.569Z,100118.63
2023-02-15T23:03:53.901Z,100116.88
2023-02-15T23:06:22.263Z,100120.34
2023-02-15T23:08:50.655Z,100125.63
2023-02-15T23:11:19.921Z,100132.56
2023-02-15T23:13:49.639Z,100125.59
2023-02-15T23:16:20.515Z,100122.97
2023-02-15T23:18:49.266Z,100125.59
2023-02-15T23:21:22.210Z,100122.94
2023-02-15T23:23:52.336Z,100128.19
2023-02-15T23:26:22.755Z,100115.09
2023-02-15T23:28:52.335Z,100114.16
2023-02-15T23:31:24.826Z,100116.84
2023-02-15T23:33:54.159Z,100115.09
2023-02-15T23:36:32.203Z,100111.59
2023-02-15T23:39:23.432Z,100107.22
2023-02-15T23:41:51.248Z,100120.31
2023-02-15T23:44:20.256Z,100121.19
2023-02-15T23:46:50.845Z,100122.03
2023-02-15T23:49:20.506Z,100123.81
2023-02-15T23:51:51.060Z,100121.19
2023-02-15T23:54:21.798Z,100122.94
2023-02-15T23:56:52.370Z,100115.09
2023-02-15T23:59:23.284Z,100119.44
